Time;durP1;ratioP1;P1;durP2;ratioP2;P2;SDS_P1;SDS_P2;PMS_P1;PMS_P2;Temp;Humidity;BMP_temperature;BMP_pressure;BME280_temperature;BME280_humidity;BME280_pressure;Samples;Min_cycle;Max_cycle;Signal;HPM_P1;HPM_P2
2020/12/02 00:01:17;;;;;;;49.67;29.00;;;4.10;99.90;;;;;;5037783;28;20025;-51
2020/12/02 00:03:51;;;;;;;57.80;29.88;;;4.10;99.90;;;;;;5044065;28;20025;-49
2020/12/02 00:06:18;;;;;;;53.25;29.17;;;4.10;99.90;;;;;;5047916;28;20028;-48
2020/12/02 00:08:52;;;;;;;50.38;29.15;;;4.10;99.90;;;;;;5026922;28;20292;-50
2020/12/02 00:11:18;;;;;;;48.90;28.02;;;4.10;99.90;;;;;;5035009;28;20048;-49
2020/12/02 00:13:47;;;;;;;48.15;26.75;;;4.10;99.90;;;;;;5028246;28;20479;-50
2020/12/02 00:16:17;;;;;;;47.40;26.13;;;4.10;99.90;;;;;;5037619;28;20025;-49
2020/12/02 00:18:44;;;;;;;53.38;29.42;;;4.10;99.90;;;;;;5045374;28;20056;-49
2020/12/02 00:21:09;;;;;;;50.22;28.45;;;4.10;99.90;;;;;;5036779;28;20092;-50
2020/12/02 00:23:35;;;;;;;47.70;26.58;;;4.10;99.90;;;;;;5039871;28;20413;-50
2020/12/02 00:26:01;;;;;;;47.05;27.20;;;4.10;99.90;;;;;;5040108;28;20483;-50
2020/12/02 00:28:26;;;;;;;50.85;28.08;;;4.10;99.90;;;;;;5032780;28;20021;-48
2020/12/02 00:30:52;;;;;;;52.35;28.92;;;4.10;99.90;;;;;;5027303;28;20033;-49
2020/12/02 00:33:25;;;;;;;46.47;26.63;;;4.10;99.90;;;;;;5043360;28;20033;-51
2020/12/02 00:35:52;;;;;;;47.53;27.45;;;4.10;99.90;;;;;;5037688;28;20494;-48
2020/12/02 00:38:20;;;;;;;48.10;27.80;;;4.00;99.90;;;;;;5035381;28;20034;-51
2020/12/02 00:40:45;;;;;;;54.65;29.98;;;4.00;99.90;;;;;;5038509;28;20098;-49
2020/12/02 00:43:17;;;;;;;50.67;27.88;;;4.10;99.90;;;;;;5036659;28;20486;-49
2020/12/02 00:45:43;;;;;;;52.05;27.63;;;4.10;99.90;;;;;;5030145;28;20112;-53
2020/12/02 00:48:15;;;;;;;45.78;26.38;;;4.10;99.90;;;;;;5033499;28;20483;-49
2020/12/02 00:50:41;;;;;;;49.85;27.38;;;4.10;99.90;;;;;;5027425;28;20091;-55
2020/12/02 00:53:10;;;;;;;49.10;28.02;;;4.00;99.90;;;;;;5026915;28;20034;-52
2020/12/02 00:55:35;;;;;;;46.88;27.42;;;4.10;99.90;;;;;;5028687;28;20430;-51
2020/12/02 00:58:03;;;;;;;50.70;27.52;;;4.10;99.90;;;;;;5035085;28;20029;-51
2020/12/02 01:00:32;;;;;;;51.20;28.02;;;4.10;99.90;;;;;;5026670;28;20501;-51
2020/12/02 01:03:05;;;;;;;45.78;26.55;;;4.10;99.90;;;;;;5027888;28;20082;-52
2020/12/02 01:05:31;;;;;;;46.58;26.55;;;4.00;99.90;;;;;;5028061;28;20036;-49
2020/12/02 01:08:15;;;;;;;46.97;26.52;;;4.10;99.90;;;;;;5035461;28;20028;-53
2020/12/02 01:10:41;;;;;;;44.17;25.10;;;4.00;99.90;;;;;;5046764;28;20029;-51
2020/12/02 01:13:07;;;;;;;47.28;25.75;;;4.10;99.90;;;;;;5046718;28;20040;-50
2020/12/02 01:15:32;;;;;;;47.13;25.50;;;4.10;99.90;;;;;;5046411;28;20458;-52
2020/12/02 01:18:21;;;;;;;51.90;29.02;;;4.10;99.90;;;;;;5034386;28;20471;-50
2020/12/02 01:21:14;;;;;;;50.08;27.23;;;4.10;99.90;;;;;;5038733;28;20021;-51
2020/12/02 01:23:44;;;;;;;50.95;28.15;;;4.10;99.90;;;;;;5049279;28;20465;-52
2020/12/02 01:26:10;;;;;;;45.37;26.53;;;4.00;99.90;;;;;;5049530;28;20420;-49
2020/12/02 01:28:37;;;;;;;44.75;26.00;;;4.00;99.90;;;;;;5050811;28;20028;-48
2020/12/02 01:31:04;;;;;;;50.22;28.02;;;4.00;99.90;;;;;;5050524;28;20025;-53
2020/12/02 01:33:30;;;;;;;50.20;27.25;;;4.00;99.90;;;;;;5051101;28;20431;-51
2020/12/02 01:35:56;;;;;;;52.60;27.48;;;4.00;99.90;;;;;;5039327;28;20179;-51
2020/12/02 01:38:30;;;;;;;47.65;25.65;;;4.00;99.90;;;;;;5034013;28;20506;-51
2020/12/02 01:40:56;;;;;;;46.65;27.92;;;4.00;99.90;;;;;;5033384;28;20023;-50
2020/12/02 01:43:22;;;;;;;50.20;27.50;;;4.00;99.90;;;;;;5037521;28;20032;-52
2020/12/02 01:45:55;;;;;;;47.72;27.42;;;4.00;99.90;;;;;;5043422;28;20025;-50
2020/12/02 01:48:20;;;;;;;43.20;25.92;;;4.00;99.90;;;;;;5030743;28;20041;-51
2020/12/02 01:51:01;;;;;;;48.38;28.05;;;4.00;99.90;;;;;;5031328;28;20021;-52
2020/12/02 01:53:46;;;;;;;50.45;27.40;;;4.00;99.90;;;;;;5049979;28;20068;-50
2020/12/02 01:56:21;;;;;;;49.00;26.98;;;4.00;99.90;;;;;;5048723;28;20649;-53
2020/12/02 01:59:05;;;;;;;53.42;30.27;;;4.00;99.90;;;;;;5050754;28;20474;-48
2020/12/02 02:01:38;;;;;;;54.13;29.58;;;4.00;99.90;;;;;;5038140;28;20033;-51
2020/12/02 02:04:06;;;;;;;50.20;26.95;;;4.00;99.90;;;;;;5030662;28;20622;-49
2020/12/02 02:07:05;;;;;;;51.33;28.75;;;4.00;99.90;;;;;;5030455;28;20176;-49
2020/12/02 02:09:31;;;;;;;51.00;28.40;;;4.00;99.90;;;;;;5029318;28;20509;-49
2020/12/02 02:12:21;;;;;;;50.28;27.77;;;4.00;99.90;;;;;;5028584;28;20061;-49
2020/12/02 02:15:01;;;;;;;50.55;27.70;;;4.00;99.90;;;;;;5028982;28;20112;-51
2020/12/02 02:17:27;;;;;;;57.30;30.42;;;4.00;99.90;;;;;;5036511;28;20029;-49
2020/12/02 02:19:53;;;;;;;46.65;27.52;;;4.00;99.90;;;;;;5030213;28;20037;-48
2020/12/02 02:22:19;;;;;;;48.75;27.55;;;3.90;99.90;;;;;;5041959;28;20444;-50
2020/12/02 02:24:48;;;;;;;54.25;29.65;;;4.00;99.90;;;;;;5048812;28;20025;-49
2020/12/02 02:27:14;;;;;;;47.28;26.90;;;4.00;99.90;;;;;;5036796;28;20030;-49
2020/12/02 02:29:42;;;;;;;48.28;26.35;;;4.00;99.90;;;;;;5034352;28;20025;-49
2020/12/02 02:32:14;;;;;;;50.30;27.90;;;4.00;99.90;;;;;;5048412;28;20053;-51
2020/12/02 02:34:45;;;;;;;48.50;26.30;;;3.90;99.90;;;;;;5049004;28;20033;-48
2020/12/02 02:37:12;;;;;;;52.47;29.58;;;4.00;99.90;;;;;;5048057;28;20485;-48
2020/12/02 02:39:38;;;;;;;49.13;28.60;;;3.90;99.90;;;;;;5049278;28;20068;-49
2020/12/02 02:42:32;;;;;;;45.33;26.23;;;3.90;99.90;;;;;;5046445;28;20025;-46
2020/12/02 02:45:12;;;;;;;51.10;27.17;;;3.90;99.90;;;;;;5028657;28;20071;-48
2020/12/02 02:47:39;;;;;;;46.67;26.67;;;3.90;99.90;;;;;;5034437;28;20037;-50
2020/12/02 02:50:08;;;;;;;45.42;25.50;;;3.90;99.90;;;;;;5048728;28;20021;-47
2020/12/02 02:52:34;;;;;;;51.08;29.17;;;3.90;99.90;;;;;;5044963;28;20399;-47
2020/12/02 02:54:59;;;;;;;48.15;27.98;;;4.00;99.90;;;;;;5028836;28;20025;-49
2020/12/02 02:57:25;;;;;;;49.88;28.73;;;3.90;99.90;;;;;;5029534;28;20040;-48
2020/12/02 02:59:50;;;;;;;54.47;29.40;;;4.00;99.90;;;;;;5039632;28;20029;-48
2020/12/02 03:02:16;;;;;;;48.40;27.98;;;4.00;99.90;;;;;;5028972;28;20070;-50
2020/12/02 03:04:42;;;;;;;47.92;28.50;;;4.00;99.90;;;;;;5047501;28;20032;-50
2020/12/02 03:07:15;;;;;;;51.13;28.13;;;3.90;99.90;;;;;;5048530;28;20037;-49
2020/12/02 03:09:42;;;;;;;48.95;28.63;;;3.90;99.90;;;;;;5048041;28;20025;-50
2020/12/02 03:12:08;;;;;;;51.55;28.85;;;3.90;99.90;;;;;;5046592;28;20560;-48
2020/12/02 03:14:41;;;;;;;49.08;29.55;;;3.90;99.90;;;;;;5032948;28;20033;-50
2020/12/02 03:17:11;;;;;;;48.70;27.50;;;3.90;99.90;;;;;;5044226;28;20187;-49
2020/12/02 03:19:42;;;;;;;49.42;27.73;;;3.90;99.90;;;;;;5029218;28;20025;-50
2020/12/02 03:22:11;;;;;;;51.28;28.30;;;3.90;99.90;;;;;;5037019;28;20465;-48
2020/12/02 03:24:38;;;;;;;46.33;26.77;;;3.90;99.90;;;;;;5048920;28;20029;-50
2020/12/02 03:27:04;;;;;;;50.28;27.00;;;3.90;99.90;;;;;;5044501;28;20385;-50
2020/12/02 03:29:29;;;;;;;50.13;27.08;;;3.90;99.90;;;;;;5047229;28;20040;-52
2020/12/02 03:31:55;;;;;;;46.17;27.35;;;3.90;99.90;;;;;;5048310;28;20025;-49
2020/12/02 03:34:21;;;;;;;48.63;27.50;;;3.90;99.90;;;;;;5032672;28;20435;-49
2020/12/02 03:36:48;;;;;;;46.80;27.33;;;3.80;99.90;;;;;;5035261;28;20207;-48
2020/12/02 03:39:15;;;;;;;49.30;26.90;;;3.90;99.90;;;;;;5046424;28;20070;-49
2020/12/02 03:41:41;;;;;;;54.53;29.88;;;3.90;99.90;;;;;;5039466;28;20029;-50
2020/12/02 03:44:07;;;;;;;47.65;27.17;;;3.90;99.90;;;;;;5036795;28;20029;-49
2020/12/02 03:46:33;;;;;;;50.30;27.80;;;3.90;99.90;;;;;;5047702;28;20036;-48
2020/12/02 03:48:59;;;;;;;52.78;28.02;;;3.90;99.90;;;;;;5027445;28;20037;-50
2020/12/02 03:51:25;;;;;;;51.03;28.45;;;3.90;99.90;;;;;;5028440;28;20099;-49
2020/12/02 03:53:51;;;;;;;51.10;28.15;;;3.80;99.90;;;;;;5028683;28;20033;-49
2020/12/02 03:56:19;;;;;;;51.85;28.75;;;3.80;99.90;;;;;;5044940;28;20037;-49
2020/12/02 03:58:45;;;;;;;52.28;27.90;;;3.80;99.90;;;;;;5039118;28;20025;-49
2020/12/02 04:01:10;;;;;;;50.35;29.05;;;3.80;99.90;;;;;;5034374;28;20536;-48
2020/12/02 04:03:37;;;;;;;48.42;27.70;;;3.80;99.90;;;;;;5036080;28;20549;-52
2020/12/02 04:06:07;;;;;;;48.25;27.58;;;3.80;99.90;;;;;;5047901;28;20028;-53
2020/12/02 04:08:32;;;;;;;49.65;27.40;;;3.80;99.90;;;;;;5045827;28;20025;-52
2020/12/02 04:10:59;;;;;;;49.00;27.65;;;3.80;99.90;;;;;;5031414;28;20044;-52
2020/12/02 04:13:25;;;;;;;49.72;28.05;;;3.80;99.90;;;;;;5033439;28;20025;-51
2020/12/02 04:15:51;;;;;;;50.15;28.08;;;3.80;99.90;;;;;;5045378;28;20390;-52
2020/12/02 04:18:16;;;;;;;48.28;27.27;;;3.80;99.90;;;;;;5033429;28;20036;-51
2020/12/02 04:20:42;;;;;;;53.10;29.15;;;3.80;99.90;;;;;;5027036;28;20033;-50
2020/12/02 04:23:07;;;;;;;48.65;28.45;;;3.80;99.90;;;;;;5047093;28;20155;-51
2020/12/02 04:25:32;;;;;;;48.47;28.23;;;3.80;99.90;;;;;;5048115;28;20379;-52
2020/12/02 04:27:58;;;;;;;50.08;27.60;;;3.80;99.90;;;;;;5028914;28;20083;-52
2020/12/02 04:30:23;;;;;;;47.13;26.40;;;3.80;99.90;;;;;;5033449;28;20398;-53
2020/12/02 04:32:49;;;;;;;47.03;26.70;;;3.80;99.90;;;;;;5046082;28;20036;-51
2020/12/02 04:35:16;;;;;;;50.75;28.23;;;3.80;99.90;;;;;;5047927;28;20037;-53
2020/12/02 04:37:42;;;;;;;46.70;25.90;;;3.80;99.90;;;;;;5032529;28;20112;-51
2020/12/02 04:40:12;;;;;;;52.63;29.30;;;3.80;99.90;;;;;;5028408;28;20080;-52
2020/12/02 04:42:43;;;;;;;48.90;28.03;;;3.80;99.90;;;;;;5032177;28;20052;-52
2020/12/02 04:45:13;;;;;;;53.70;28.65;;;3.80;99.90;;;;;;5036254;28;20109;-53
2020/12/02 04:47:40;;;;;;;;;;;3.80;99.90;;;;;;5029977;28;20421;-53
2020/12/02 04:50:14;;;;;;;55.30;29.00;;;3.80;99.90;;;;;;5027946;28;19905;-53
2020/12/02 04:52:44;;;;;;;51.53;29.40;;;3.80;99.90;;;;;;5042019;28;20570;-52
2020/12/02 04:55:10;;;;;;;52.83;27.70;;;3.80;99.90;;;;;;5049408;28;20029;-53
2020/12/02 04:57:36;;;;;;;46.92;27.55;;;3.80;99.90;;;;;;5043334;28;20033;-52
2020/12/02 05:00:22;;;;;;;51.20;28.90;;;3.80;99.90;;;;;;5037917;28;20034;-52
2020/12/02 05:02:48;;;;;;;51.00;29.00;;;3.80;99.90;;;;;;5041197;28;20088;-49
2020/12/02 05:05:20;;;;;;;53.67;29.17;;;3.80;99.90;;;;;;5049758;28;20028;-53
2020/12/02 05:07:46;;;;;;;54.13;30.80;;;3.70;99.90;;;;;;5049250;28;20025;-48
2020/12/02 05:10:20;;;;;;;51.22;28.60;;;3.70;99.90;;;;;;5049319;28;20389;-48
2020/12/02 05:12:47;;;;;;;52.15;28.83;;;3.70;99.90;;;;;;5050217;28;20037;-48
2020/12/02 05:15:23;;;;;;;49.50;27.95;;;3.60;99.90;;;;;;5049590;28;20135;-51
2020/12/02 05:18:05;;;;;;;50.78;28.15;;;3.70;99.90;;;;;;5039799;28;20045;-53
2020/12/02 05:20:32;;;;;;;48.17;26.95;;;3.60;99.90;;;;;;5028306;28;20056;-51
2020/12/02 05:23:08;;;;;;;57.15;29.45;;;3.70;99.90;;;;;;5029879;28;20030;-51
2020/12/02 05:25:34;;;;;;;50.10;28.90;;;3.60;99.90;;;;;;5038212;28;20029;-53
2020/12/02 05:28:03;;;;;;;54.55;28.75;;;3.60;99.90;;;;;;5050235;28;20542;-51
2020/12/02 05:30:34;;;;;;;49.83;27.55;;;3.60;99.90;;;;;;5048215;28;20028;-51
2020/12/02 05:33:17;;;;;;;53.83;30.23;;;3.60;99.90;;;;;;5042627;28;20070;-49
2020/12/02 05:35:47;;;;;;;53.17;28.85;;;3.60;99.90;;;;;;5049814;28;20401;-50
2020/12/02 05:38:25;;;;;;;51.80;28.27;;;3.60;99.90;;;;;;5036581;28;20021;-51
2020/12/02 05:40:52;;;;;;;49.55;26.55;;;3.60;99.90;;;;;;5049324;28;20236;-49
2020/12/02 05:43:24;;;;;;;54.78;30.10;;;3.60;99.90;;;;;;5037982;28;20018;-50
2020/12/02 05:45:52;;;;;;;52.90;28.88;;;3.60;99.90;;;;;;5047269;28;20029;-48
2020/12/02 05:48:24;;;;;;;52.75;28.83;;;3.60;99.90;;;;;;5035281;28;20490;-50
2020/12/02 05:50:52;;;;;;;47.67;27.90;;;3.60;99.90;;;;;;5030432;28;20022;-48
2020/12/02 05:53:26;;;;;;;54.47;28.83;;;3.60;99.90;;;;;;5045524;28;20429;-48
2020/12/02 05:55:53;;;;;;;57.55;30.33;;;3.60;99.90;;;;;;5044694;28;20022;-50
2020/12/02 05:58:30;;;;;;;56.60;30.45;;;3.60;99.90;;;;;;5029147;28;20033;-47
2020/12/02 06:00:56;;;;;;;55.90;29.77;;;3.60;99.90;;;;;;5027579;28;20048;-48
2020/12/02 06:03:27;;;;;;;58.17;30.30;;;3.60;99.90;;;;;;5049499;28;20063;-48
2020/12/02 06:06:01;;;;;;;54.83;31.50;;;3.60;99.90;;;;;;5049324;28;20551;-47
2020/12/02 06:08:46;;;;;;;52.25;29.38;;;3.60;99.90;;;;;;5029416;28;20044;-51
2020/12/02 06:11:26;;;;;;;58.80;30.42;;;3.60;99.90;;;;;;5028658;28;20033;-51
2020/12/02 06:13:53;;;;;;;56.35;29.88;;;3.60;99.90;;;;;;5035882;28;20556;-47
2020/12/02 06:16:41;;;;;;;62.58;32.75;;;3.60;99.90;;;;;;5039599;28;20029;-52
2020/12/02 06:19:43;;;;;;;55.55;29.85;;;3.60;99.90;;;;;;5049934;28;20074;-50
2020/12/02 06:22:09;;;;;;;51.95;27.92;;;3.60;99.90;;;;;;5041987;28;20033;-50
2020/12/02 06:24:39;;;;;;;51.65;29.17;;;3.60;99.90;;;;;;5044607;28;20075;-49
2020/12/02 06:27:14;;;;;;;;;;;3.60;99.90;;;;;;5042891;28;20098;-47
2020/12/02 06:29:40;;;;;;;54.28;29.70;;;3.50;99.90;;;;;;5049534;28;19916;-46
2020/12/02 06:32:13;;;;;;;56.67;29.08;;;3.60;99.90;;;;;;5038913;28;20594;-46
2020/12/02 06:34:39;;;;;;;62.00;31.88;;;3.60;99.90;;;;;;5028541;28;20525;-48
2020/12/02 06:37:26;;;;;;;56.80;30.13;;;3.60;99.90;;;;;;5043074;28;20224;-50
2020/12/02 06:39:59;;;;;;;57.42;31.15;;;3.50;99.90;;;;;;5042892;28;20051;-48
2020/12/02 06:42:41;;;;;;;54.17;29.17;;;3.60;99.90;;;;;;5040915;28;20021;-47
2020/12/02 06:45:23;;;;;;;47.80;27.98;;;3.50;99.90;;;;;;5032973;28;20029;-48
2020/12/02 06:47:49;;;;;;;50.97;29.52;;;3.50;99.90;;;;;;5036856;28;20028;-50
2020/12/02 06:50:17;;;;;;;52.53;29.52;;;3.50;99.90;;;;;;5038770;28;20022;-46
2020/12/02 06:52:43;;;;;;;56.50;30.60;;;3.50;99.90;;;;;;5044784;28;20029;-47
2020/12/02 06:55:16;;;;;;;52.20;28.35;;;3.50;99.90;;;;;;5042572;28;20094;-47
2020/12/02 06:57:43;;;;;;;54.03;29.92;;;3.50;99.90;;;;;;5043533;28;20040;-46
2020/12/02 07:00:17;;;;;;;52.35;27.73;;;3.50;99.90;;;;;;5050001;28;20112;-48
2020/12/02 07:02:47;;;;;;;57.75;29.80;;;3.50;99.90;;;;;;5047142;28;20039;-47
2020/12/02 07:05:34;;;;;;;54.30;28.37;;;3.50;99.90;;;;;;5031628;28;20072;-47
2020/12/02 07:08:24;;;;;;;53.50;30.27;;;3.50;99.90;;;;;;5044082;28;20283;-46
2020/12/02 07:11:10;;;;;;;54.07;29.47;;;3.50;99.90;;;;;;5049310;28;20033;-44
2020/12/02 07:13:39;;;;;;;55.80;30.58;;;3.50;99.90;;;;;;5041649;28;20284;-44
2020/12/02 07:16:11;;;;;;;61.13;30.17;;;3.40;99.90;;;;;;5033635;28;20025;-45
2020/12/02 07:18:37;;;;;;;52.45;29.45;;;3.40;99.90;;;;;;5029237;28;20600;-44
2020/12/02 07:21:27;;;;;;;63.67;33.28;;;3.40;99.90;;;;;;5047739;28;20104;-47
2020/12/02 07:23:54;;;;;;;65.15;33.75;;;3.40;99.90;;;;;;5049514;28;20107;-46
2020/12/02 07:26:21;;;;;;;61.05;32.10;;;3.40;99.90;;;;;;5048273;28;20060;-45
2020/12/02 07:28:54;;;;;;;60.08;33.20;;;3.40;99.90;;;;;;5037576;28;20129;-47
2020/12/02 07:31:24;;;;;;;60.22;31.60;;;3.40;99.90;;;;;;5048621;28;20020;-44
2020/12/02 07:34:04;;;;;;;62.47;33.70;;;3.40;99.90;;;;;;5049751;28;20016;-46
2020/12/02 07:36:33;;;;;;;59.92;30.85;;;3.40;99.90;;;;;;5049046;28;20414;-45
2020/12/02 07:39:08;;;;;;;60.40;31.90;;;3.40;99.90;;;;;;5049185;28;20086;-47
2020/12/02 07:41:34;;;;;;;65.72;32.58;;;3.40;99.90;;;;;;5048589;28;20669;-45
2020/12/02 07:44:00;;;;;;;59.47;31.48;;;3.40;99.90;;;;;;5037106;28;20112;-46
2020/12/02 07:46:26;;;;;;;66.65;34.78;;;3.40;99.90;;;;;;5030659;28;20025;-44
2020/12/02 07:48:56;;;;;;;63.95;34.78;;;3.40;99.90;;;;;;5037945;28;20083;-45
2020/12/02 07:51:26;;;;;;;65.68;37.03;;;3.50;99.90;;;;;;5048200;28;20021;-46
2020/12/02 07:54:29;;;;;;;69.45;35.60;;;3.50;99.90;;;;;;5046863;28;20112;-44
2020/12/02 07:56:55;;;;;;;71.90;35.97;;;3.50;99.90;;;;;;5036507;28;20056;-45
2020/12/02 07:59:28;;;;;;;70.03;36.47;;;3.50;99.90;;;;;;5048336;28;20067;-47
2020/12/02 08:01:56;;;;;;;69.55;36.13;;;3.50;99.90;;;;;;5035211;28;20492;-46
2020/12/02 08:04:22;;;;;;;67.00;34.10;;;3.40;99.90;;;;;;5028991;28;20049;-46
2020/12/02 08:07:07;;;;;;;71.03;36.80;;;3.40;99.90;;;;;;5048914;28;20128;-49
2020/12/02 08:09:44;;;;;;;62.83;35.00;;;3.50;99.90;;;;;;5036737;28;20116;-45
2020/12/02 08:12:11;;;;;;;72.20;33.67;;;3.50;99.90;;;;;;5035881;28;20029;-45
2020/12/02 08:14:42;;;;;;;65.95;34.40;;;3.50;99.90;;;;;;5044188;28;20033;-45
2020/12/02 08:17:19;;;;;;;68.60;34.35;;;3.50;99.90;;;;;;5043543;28;20089;-47
2020/12/02 08:19:50;;;;;;;59.90;33.90;;;3.50;99.90;;;;;;5039156;28;20029;-47
2020/12/02 08:22:47;;;;;;;66.30;34.40;;;3.50;99.90;;;;;;5033191;28;20025;-45
2020/12/02 08:25:20;;;;;;;67.75;35.30;;;3.50;99.90;;;;;;5046382;28;20028;-46
2020/12/02 08:27:49;;;;;;;64.05;33.78;;;3.50;99.90;;;;;;5041544;28;20435;-47
2020/12/02 08:30:19;;;;;;;60.38;34.08;;;3.50;99.90;;;;;;5037031;28;20432;-47
2020/12/02 08:32:51;;;;;;;61.83;32.97;;;3.50;99.90;;;;;;5037905;28;20095;-45
2020/12/02 08:35:19;;;;;;;68.78;35.55;;;3.50;99.90;;;;;;5034222;28;20147;-46
2020/12/02 08:37:52;;;;;;;67.85;35.03;;;3.50;99.90;;;;;;5042522;28;20033;-45
2020/12/02 08:40:31;;;;;;;72.47;35.53;;;3.50;99.90;;;;;;5051704;28;20438;-47
2020/12/02 08:43:17;;;;;;;70.93;36.33;;;3.50;99.90;;;;;;5044981;28;20086;-47
2020/12/02 08:45:54;;;;;;;75.55;36.47;;;3.50;99.90;;;;;;5032320;28;20079;-46
2020/12/02 08:48:19;;;;;;;77.55;37.13;;;3.50;99.90;;;;;;5036645;28;20209;-49
2020/12/02 08:50:44;;;;;;;74.90;37.90;;;3.50;99.90;;;;;;5033366;28;20025;-47
2020/12/02 08:53:10;;;;;;;80.75;40.30;;;3.50;99.90;;;;;;5042350;28;20460;-46
2020/12/02 08:55:35;;;;;;;79.60;39.03;;;3.40;99.90;;;;;;5032752;28;20040;-48
2020/12/02 08:58:01;;;;;;;71.63;35.38;;;3.40;99.90;;;;;;5030782;28;20033;-46
2020/12/02 09:00:26;;;;;;;73.28;37.38;;;3.40;99.90;;;;;;5030415;28;20052;-46
2020/12/02 09:02:52;;;;;;;74.28;37.55;;;3.50;99.90;;;;;;5032159;28;20025;-49
2020/12/02 09:05:17;;;;;;;75.93;37.13;;;3.50;99.90;;;;;;5039635;28;20033;-46
2020/12/02 09:07:43;;;;;;;76.75;34.90;;;3.50;99.90;;;;;;5035526;28;20064;-49
2020/12/02 09:10:08;;;;;;;77.40;38.00;;;3.50;99.90;;;;;;5051240;28;20078;-46
2020/12/02 09:12:34;;;;;;;71.20;36.05;;;3.50;99.90;;;;;;5045102;28;20030;-48
2020/12/02 09:15:00;;;;;;;68.68;36.15;;;3.50;99.90;;;;;;5038201;28;20437;-47
2020/12/02 09:17:27;;;;;;;72.50;36.83;;;3.50;99.90;;;;;;5031235;28;20128;-50
2020/12/02 09:19:52;;;;;;;67.82;35.35;;;3.50;99.90;;;;;;5029801;28;20071;-49
2020/12/02 09:22:19;;;;;;;64.22;34.28;;;3.50;99.90;;;;;;5041813;28;20048;-47
2020/12/02 09:24:46;;;;;;;69.00;34.65;;;3.50;99.90;;;;;;5051036;28;20054;-48
2020/12/02 09:27:12;;;;;;;68.70;33.97;;;3.50;99.90;;;;;;5041966;28;20029;-45
2020/12/02 09:29:37;;;;;;;71.97;33.97;;;3.50;99.90;;;;;;5044808;28;20651;-46
2020/12/02 09:32:03;;;;;;;66.53;34.78;;;3.50;99.90;;;;;;5042249;28;20485;-46
2020/12/02 09:34:29;;;;;;;72.50;37.90;;;3.60;99.90;;;;;;5031518;28;20025;-46
2020/12/02 09:36:54;;;;;;;72.53;37.10;;;3.60;99.90;;;;;;5040460;28;20124;-45
2020/12/02 09:39:21;;;;;;;75.00;39.25;;;3.60;99.90;;;;;;5037922;28;20025;-46
2020/12/02 09:42:20;;;;;;;73.32;36.58;;;3.70;99.90;;;;;;5038149;28;20017;-46
2020/12/02 09:45:00;;;;;;;74.13;38.17;;;3.70;99.90;;;;;;5032536;28;20530;-47
2020/12/02 09:47:26;;;;;;;85.72;40.33;;;3.70;99.90;;;;;;5040733;28;20029;-47
2020/12/02 09:49:53;;;;;;;82.63;41.70;;;3.70;99.90;;;;;;5040804;28;20075;-47
2020/12/02 09:52:37;;;;;;;82.65;41.20;;;3.70;99.90;;;;;;5037507;28;20032;-47
2020/12/02 09:55:09;;;;;;;70.80;36.90;;;3.70;99.90;;;;;;5049200;28;20029;-48
2020/12/02 09:57:35;;;;;;;79.03;36.63;;;3.80;99.90;;;;;;5050566;28;20037;-47
2020/12/02 10:00:00;;;;;;;79.78;39.88;;;3.80;99.90;;;;;;5045124;28;20040;-46
2020/12/02 10:03:03;;;;;;;70.05;36.25;;;3.80;99.90;;;;;;5034054;28;20124;-48
2020/12/02 10:05:37;;;;;;;75.28;36.92;;;3.90;99.90;;;;;;5044851;28;20021;-50
2020/12/02 10:08:31;;;;;;;72.85;35.70;;;3.90;99.90;;;;;;5049672;28;20032;-45
2020/12/02 10:11:04;;;;;;;72.25;35.08;;;3.90;99.90;;;;;;5049841;28;20107;-46
2020/12/02 10:13:48;;;;;;;81.00;36.22;;;3.90;99.90;;;;;;5062011;28;20035;-46
2020/12/02 10:16:29;;;;;;;75.65;37.03;;;3.90;99.90;;;;;;5048207;28;20068;-47
2020/12/02 10:19:27;;;;;;;66.00;35.25;;;3.90;99.90;;;;;;5038073;28;20033;-45
2020/12/02 10:22:23;;;;;;;68.07;35.42;;;4.00;99.90;;;;;;5042271;28;20490;-47
2020/12/02 10:25:23;;;;;;;66.47;36.13;;;4.00;99.90;;;;;;5045135;28;20033;-50
2020/12/02 10:28:19;;;;;;;75.53;37.08;;;4.10;99.90;;;;;;5041950;28;20021;-46
2020/12/02 10:31:22;;;;;;;81.95;40.33;;;4.10;99.90;;;;;;5046716;28;20029;-46
2020/12/02 10:34:01;;;;;;;88.22;39.10;;;4.20;99.90;;;;;;5029302;28;20394;-46
2020/12/02 10:36:33;;;;;;;90.60;41.65;;;4.30;99.90;;;;;;5042547;28;20479;-46
2020/12/02 10:39:03;;;;;;;94.75;44.50;;;4.40;99.90;;;;;;5044834;28;20418;-47
2020/12/02 10:41:45;;;;;;;88.75;42.92;;;4.40;99.90;;;;;;5048127;28;20047;-45
2020/12/02 10:44:38;;;;;;;95.13;44.42;;;4.50;99.90;;;;;;5039199;28;20513;-45
2020/12/02 10:47:24;;;;;;;86.88;41.22;;;4.60;99.90;;;;;;5030027;28;20027;-46
2020/12/02 10:49:50;;;;;;;82.00;41.88;;;4.70;99.90;;;;;;5042999;28;20040;-49
2020/12/02 10:52:18;;;;;;;84.00;42.20;;;4.70;99.90;;;;;;5041162;28;20099;-46
2020/12/02 10:54:47;;;;;;;84.95;42.33;;;5.00;99.90;;;;;;5033820;28;20025;-45
2020/12/02 10:57:24;;;;;;;83.55;42.10;;;4.90;99.90;;;;;;5039477;28;20043;-45
2020/12/02 10:59:57;;;;;;;87.97;40.72;;;5.00;99.90;;;;;;5037371;28;20417;-47
2020/12/02 11:02:27;;;;;;;80.43;41.15;;;5.10;99.90;;;;;;5040496;28;20041;-45
2020/12/02 11:04:53;;;;;;;79.13;40.03;;;5.10;99.90;;;;;;5036314;28;20013;-47
2020/12/02 11:07:28;;;;;;;83.68;42.08;;;5.10;99.90;;;;;;5036165;28;20299;-47
2020/12/02 11:10:14;;;;;;;87.10;40.85;;;5.10;99.90;;;;;;5047068;28;20056;-46
2020/12/02 11:13:09;;;;;;;87.20;41.55;;;5.00;99.90;;;;;;5031026;28;20108;-47
2020/12/02 11:15:53;;;;;;;82.93;42.30;;;4.80;99.90;;;;;;5031998;28;20049;-48
2020/12/02 11:18:46;;;;;;;85.75;41.25;;;4.80;99.90;;;;;;5037239;28;20021;-46
2020/12/02 11:21:24;;;;;;;74.65;37.80;;;4.70;99.90;;;;;;5039314;28;20029;-47
2020/12/02 11:24:14;;;;;;;72.47;38.55;;;4.60;99.90;;;;;;5029473;28;20022;-45
2020/12/02 11:26:40;;;;;;;75.10;37.83;;;4.60;99.90;;;;;;5031616;28;20490;-48
2020/12/02 11:29:13;;;;;;;72.90;38.15;;;4.70;99.90;;;;;;5035358;28;20021;-46
2020/12/02 11:32:03;;;;;;;76.57;39.13;;;4.90;99.90;;;;;;5047603;28;20124;-45
2020/12/02 11:35:01;;;;;;;78.55;40.67;;;4.90;99.90;;;;;;5037515;28;20044;-50
2020/12/02 11:37:49;;;;;;;75.05;37.95;;;4.80;99.90;;;;;;5030695;28;20025;-47
2020/12/02 11:40:21;;;;;;;76.38;39.67;;;4.80;99.90;;;;;;5031288;28;20046;-48
2020/12/02 11:42:49;;;;;;;74.93;39.80;;;4.70;99.90;;;;;;5038240;28;20032;-46
2020/12/02 11:45:37;;;;;;;75.45;38.05;;;4.80;99.90;;;;;;5043130;28;20028;-47
2020/12/02 11:48:08;;;;;;;69.05;36.50;;;4.80;99.90;;;;;;5031274;28;20030;-46
2020/12/02 11:50:44;;;;;;;75.45;40.13;;;4.70;99.90;;;;;;5047636;28;20045;-49
2020/12/02 11:53:43;;;;;;;62.90;36.17;;;4.70;99.90;;;;;;5044485;28;20055;-47
2020/12/02 11:56:34;;;;;;;70.75;38.03;;;4.80;99.90;;;;;;5033625;28;20072;-45
2020/12/02 11:59:17;;;;;;;73.80;38.13;;;4.90;99.90;;;;;;5030408;28;20068;-45
2020/12/02 12:01:53;;;;;;;74.22;39.05;;;4.90;99.90;;;;;;5029999;28;20033;-48
2020/12/02 12:04:34;;;;;;;76.03;40.78;;;4.80;99.90;;;;;;5047209;28;20017;-49
2020/12/02 12:07:32;;;;;;;86.80;41.30;;;4.80;99.90;;;;;;5047571;28;20032;-47
2020/12/02 12:17:03;;;;;;;83.15;41.17;;;4.80;99.90;;;;;;5030477;28;20035;-45
2020/12/02 12:19:38;;;;;;;86.65;41.65;;;4.80;99.90;;;;;;5030771;28;20033;-47
2020/12/02 12:22:09;;;;;;;74.97;38.45;;;4.80;99.90;;;;;;5042769;28;20037;-48
2020/12/02 12:24:35;;;;;;;80.88;38.65;;;4.80;99.90;;;;;;5039076;28;20025;-46
2020/12/02 12:27:00;;;;;;;73.50;39.72;;;4.80;99.90;;;;;;5039613;28;20493;-47
2020/12/02 12:29:26;;;;;;;77.82;40.92;;;4.70;99.90;;;;;;5047057;28;20517;-47
2020/12/02 12:31:59;;;;;;;87.10;42.47;;;4.60;99.90;;;;;;5040074;28;20051;-48
2020/12/02 12:34:53;;;;;;;77.20;38.53;;;4.60;99.90;;;;;;5028796;28;20559;-46
2020/12/02 12:37:34;;;;;;;81.15;39.92;;;4.60;99.90;;;;;;5040111;28;20029;-46
2020/12/02 12:40:06;;;;;;;65.68;38.33;;;4.60;99.90;;;;;;5035086;28;20049;-47
2020/12/02 12:42:38;;;;;;;67.65;35.75;;;4.60;99.90;;;;;;5027464;28;20479;-47
2020/12/02 12:45:11;;;;;;;73.40;37.35;;;4.50;99.90;;;;;;5031882;28;20021;-46
2020/12/02 12:47:39;;;;;;;74.82;37.70;;;4.50;99.90;;;;;;5039984;28;20026;-46
2020/12/02 12:50:07;;;;;;;84.82;40.78;;;4.50;99.90;;;;;;5029230;28;20034;-48
2020/12/02 12:52:34;;;;;;;76.20;38.95;;;4.50;99.90;;;;;;5038648;28;20037;-46
2020/12/02 12:55:00;;;;;;;67.47;36.22;;;4.50;99.90;;;;;;5044529;28;20017;-48
2020/12/02 12:57:27;;;;;;;74.18;38.80;;;4.50;99.90;;;;;;5028802;28;20034;-48
2020/12/02 12:59:56;;;;;;;76.03;41.22;;;4.50;99.90;;;;;;5035806;28;20033;-47
2020/12/02 13:02:25;;;;;;;73.40;39.33;;;4.50;99.90;;;;;;5040636;28;20474;-48
2020/12/02 13:04:50;;;;;;;71.47;37.72;;;4.50;99.90;;;;;;5046961;28;20033;-46
2020/12/02 13:07:37;;;;;;;69.25;37.25;;;4.50;99.90;;;;;;5037348;28;20022;-49
2020/12/02 13:10:25;;;;;;;77.43;40.72;;;4.50;99.90;;;;;;5030375;28;20013;-48
2020/12/02 13:13:18;;;;;;;76.03;38.85;;;4.40;99.90;;;;;;5028617;28;20083;-46